Time;durP1;ratioP1;P1;durP2;ratioP2;P2;SDS_P1;SDS_P2;PMS_P1;PMS_P2;Temp;Humidity;BMP_temperature;BMP_pressure;BME280_temperature;BME280_humidity;BME280_pressure;Samples;Min_cycle;Max_cycle;Signal;HPM_P1;HPM_P2
2022/03/28 00:01:39;;;;;;;19.30;9.28;;;;;;;1.75;35.86;98805.98;1754274;79;21032;-82
2022/03/28 00:04:14;;;;;;;14.80;8.40;;;;;;;1.75;36.74;98808.59;1718924;82;21429;-81
2022/03/28 00:06:44;;;;;;;19.42;9.20;;;;;;;1.76;35.75;98800.31;1720894;82;21056;-82
2022/03/28 00:09:11;;;;;;;21.10;9.65;;;;;;;1.75;35.78;98797.25;1741957;82;21396;-83
2022/03/28 00:11:38;;;;;;;20.25;8.30;;;;;;;1.71;35.93;98802.41;1762617;81;21039;-82
2022/03/28 00:14:05;;;;;;;21.23;8.58;;;;;;;1.66;35.87;98801.44;1762783;81;20972;-81
2022/03/28 00:16:32;;;;;;;18.48;8.40;;;;;;;1.66;36.06;98800.12;1784953;80;20972;-81
2022/03/28 00:18:58;;;;;;;21.52;8.88;;;;;;;1.66;36.05;98791.43;1777712;81;21045;-80
2022/03/28 00:21:27;;;;;;;18.77;8.23;;;;;;;1.64;35.90;98790.50;1741705;82;21148;-81
2022/03/28 00:23:56;;;;;;;18.15;7.85;;;;;;;1.59;36.30;98795.66;1753105;81;20992;-82
2022/03/28 00:26:22;;;;;;;15.90;8.30;;;;;;;1.52;36.31;98792.45;1774327;81;21024;-81
2022/03/28 00:28:49;;;;;;;16.30;7.25;;;;;;;1.46;36.27;98786.70;1771132;81;22197;-82
2022/03/28 00:31:16;;;;;;;15.25;7.33;;;;;;;1.43;36.39;98788.82;1749638;81;21040;-82
2022/03/28 00:33:43;;;;;;;17.00;7.83;;;;;;;1.35;36.48;98784.27;1773795;81;21071;-82
2022/03/28 00:36:09;;;;;;;16.45;7.03;;;;;;;1.34;36.30;98782.11;1773936;81;21050;-83
2022/03/28 00:38:35;;;;;;;18.55;7.87;;;;;;;1.30;36.39;98784.19;1777481;79;21414;-83
2022/03/28 00:41:02;;;;;;;26.10;8.98;;;;;;;1.23;36.67;98779.67;1784157;79;21010;-82
2022/03/28 00:43:28;;;;;;;20.00;8.85;;;;;;;1.17;37.09;98785.67;1790460;79;20959;-81
2022/03/28 00:45:55;;;;;;;19.92;9.10;;;;;;;1.12;37.19;98784.70;1804126;79;21026;-80
2022/03/28 00:48:21;;;;;;;16.02;8.00;;;;;;;1.05;37.20;98775.41;1797872;79;21022;-82
2022/03/28 00:50:48;;;;;;;19.87;8.58;;;;;;;1.03;37.58;98784.05;1798445;79;20996;-83
2022/03/28 00:53:15;;;;;;;16.00;7.97;;;;;;;0.93;37.63;98776.46;1807462;79;20942;-82
2022/03/28 00:55:42;;;;;;;16.37;7.75;;;;;;;0.86;37.72;98775.85;1807372;79;21067;-81
2022/03/28 00:58:09;;;;;;;15.23;7.92;;;;;;;0.81;38.22;98772.27;1806509;79;20984;-82
2022/03/28 01:00:36;;;;;;;14.95;7.78;;;;;;;0.74;37.82;98774.74;1803894;79;20995;-81
2022/03/28 01:03:03;;;;;;;16.87;8.30;;;;;;;0.75;37.91;98776.50;1803841;79;20991;-81
2022/03/28 01:05:31;;;;;;;16.35;7.78;;;;;;;0.71;37.97;98769.44;1804044;79;20955;-81
2022/03/28 01:07:59;;;;;;;19.40;9.05;;;;;;;0.68;38.07;98772.41;1804026;79;20993;-81
2022/03/28 01:10:30;;;;;;;19.75;10.48;;;;;;;0.73;38.42;98773.40;1799676;79;20999;-81
2022/03/28 01:13:00;;;;;;;18.42;9.40;;;;;;;0.73;39.13;98776.91;1768911;81;20989;-81
2022/03/28 01:15:27;;;;;;;20.70;9.40;;;;;;;0.67;38.97;98780.69;1773067;79;21330;-82
2022/03/28 01:18:05;;;;;;;20.02;9.55;;;;;;;0.64;38.37;98776.69;1792267;79;21409;-82
2022/03/28 01:20:39;;;;;;;19.62;8.83;;;;;;;0.61;39.35;98788.34;1788025;79;21030;-82
2022/03/28 01:23:08;;;;;;;17.98;8.60;;;;;;;0.49;40.87;98788.94;1791841;79;21013;-82
2022/03/28 01:25:35;;;;;;;18.85;8.80;;;;;;;0.41;40.37;98784.84;1808654;78;21000;-82
2022/03/28 01:28:03;;;;;;;23.80;9.93;;;;;;;0.34;39.96;98790.77;1809192;79;21039;-82
2022/03/28 01:30:31;;;;;;;16.40;8.18;;;;;;;0.32;40.01;98779.40;1788474;78;21031;-83
2022/03/28 01:32:59;;;;;;;21.85;9.58;;;;;;;0.33;39.42;98787.27;1777440;81;21074;-83
2022/03/28 01:35:36;;;;;;;20.25;8.58;;;;;;;0.32;39.53;98787.22;1790362;79;21057;-82
2022/03/28 01:38:07;;;;;;;20.05;9.25;;;;;;;0.28;39.56;98782.36;1793496;80;21494;-81
2022/03/28 01:40:38;;;;;;;17.55;8.53;;;;;;;0.29;39.62;98782.81;1794126;79;21007;-83
2022/03/28 01:43:05;;;;;;;22.25;8.93;;;;;;;0.31;39.75;98788.08;1800590;78;21031;-80
2022/03/28 01:45:32;;;;;;;25.48;10.98;;;;;;;0.27;39.94;98789.73;1802222;78;20992;-81
2022/03/28 01:47:58;;;;;;;16.82;8.80;;;;;;;0.23;40.08;98793.10;1789073;80;21043;-81
2022/03/28 01:50:25;;;;;;;17.00;9.03;;;;;;;0.20;40.17;98787.83;1802969;78;21438;-81
2022/03/28 01:52:52;;;;;;;19.32;9.18;;;;;;;0.21;41.09;98790.89;1794828;79;21031;-81
2022/03/28 01:55:19;;;;;;;20.82;9.93;;;;;;;0.16;40.66;98784.24;1795353;80;21094;-80
2022/03/28 01:57:46;;;;;;;22.05;9.45;;;;;;;0.13;40.20;98791.56;1783031;79;20979;-81
2022/03/28 02:00:17;;;;;;;20.37;9.83;;;;;;;0.17;40.57;98782.53;1807667;79;21030;-82
2022/03/28 02:02:47;;;;;;;20.08;8.78;;;;;;;0.18;40.13;98786.89;1809774;79;20979;-83
2022/03/28 02:05:13;;;;;;;21.85;10.18;;;;;;;0.20;40.55;98778.27;1806934;79;21047;-83
2022/03/28 02:07:42;;;;;;;25.50;11.28;;;;;;;0.19;40.96;98784.33;1809677;79;20963;-82
2022/03/28 02:10:11;;;;;;;24.57;10.43;;;;;;;0.14;40.86;98784.64;1807672;79;21051;-82
2022/03/28 02:12:38;;;;;;;21.60;10.23;;;;;;;0.08;40.58;98781.89;1809523;79;21427;-82
2022/03/28 02:15:07;;;;;;;21.12;9.58;;;;;;;0.05;40.57;98779.19;1806531;79;21003;-82
2022/03/28 02:17:36;;;;;;;19.40;9.58;;;;;;;0.02;40.23;98773.89;1777738;79;21506;-82
2022/03/28 02:20:06;;;;;;;21.02;10.08;;;;;;;0.05;40.40;98786.60;1776819;81;21018;-82
2022/03/28 02:22:35;;;;;;;19.35;9.70;;;;;;;0.02;40.86;98778.69;1777450;81;21021;-81
2022/03/28 02:25:04;;;;;;;20.25;11.00;;;;;;;0.01;40.68;98782.56;1777534;81;21451;-81
2022/03/28 02:27:30;;;;;;;25.77;10.70;;;;;;;0.00;40.64;98786.91;1777460;81;21030;-81
2022/03/28 02:29:57;;;;;;;18.45;9.93;;;;;;;-0.04;41.27;98791.13;1807374;78;21393;-81
2022/03/28 02:32:23;;;;;;;28.25;11.93;;;;;;;-0.09;41.53;98795.34;1807985;79;21007;-81
2022/03/28 02:34:50;;;;;;;25.65;11.43;;;;;;;-0.18;41.72;98792.09;1808046;79;20996;-81
2022/03/28 02:37:17;;;;;;;21.93;10.48;;;;;;;-0.30;43.25;98799.16;1808012;79;20988;-81
2022/03/28 02:39:44;;;;;;;24.07;10.20;;;;;;;-0.36;42.38;98798.09;1805563;79;21027;-81
2022/03/28 02:42:10;;;;;;;19.12;10.23;;;;;;;-0.34;41.66;98786.88;1801610;79;21103;-81
2022/03/28 02:44:37;;;;;;;19.95;9.48;;;;;;;-0.31;41.75;98786.98;1802135;80;21463;-81
2022/03/28 02:47:04;;;;;;;22.95;9.40;;;;;;;-0.30;41.77;98783.52;1802014;80;21047;-81
2022/03/28 02:49:31;;;;;;;19.02;8.85;;;;;;;-0.30;41.93;98785.23;1802267;80;21051;-82
2022/03/28 02:51:57;;;;;;;21.90;10.00;;;;;;;-0.28;41.81;98792.69;1802998;79;20975;-82
2022/03/28 02:54:24;;;;;;;21.77;10.78;;;;;;;-0.25;41.87;98794.05;1803807;79;20931;-82
2022/03/28 02:56:50;;;;;;;26.12;10.43;;;;;;;-0.21;41.44;98792.44;1803793;79;21037;-82
2022/03/28 02:59:17;;;;;;;24.52;10.53;;;;;;;-0.24;41.26;98793.64;1803875;79;21397;-81
2022/03/28 03:01:45;;;;;;;26.45;10.85;;;;;;;-0.24;42.53;98798.45;1801706;79;21130;-82
2022/03/28 03:04:11;;;;;;;22.07;10.88;;;;;;;-0.28;41.63;98792.25;1802191;80;21385;-81
2022/03/28 03:06:38;;;;;;;27.95;10.88;;;;;;;-0.28;42.23;98790.94;1802100;80;21019;-81
2022/03/28 03:09:04;;;;;;;23.83;10.93;;;;;;;-0.33;42.27;98795.59;1801877;80;20991;-80
2022/03/28 03:11:31;;;;;;;26.68;10.70;;;;;;;-0.36;41.45;98795.50;1802129;80;21011;-81
2022/03/28 03:13:57;;;;;;;22.15;10.25;;;;;;;-0.41;42.29;98794.08;1781005;79;22040;-81
2022/03/28 03:16:24;;;;;;;22.90;10.38;;;;;;;-0.44;41.95;98793.98;1795358;80;21001;-83
2022/03/28 03:18:51;;;;;;;21.52;9.38;;;;;;;-0.43;41.83;98786.22;1764605;80;21025;-80
2022/03/28 03:21:17;;;;;;;23.52;10.00;;;;;;;-0.47;41.98;98786.08;1796018;80;21052;-80
2022/03/28 03:23:44;;;;;;;23.05;10.68;;;;;;;-0.49;42.26;98782.56;1795826;80;21033;-80
2022/03/28 03:26:10;;;;;;;26.80;10.55;;;;;;;-0.53;42.31;98781.60;1800307;80;21083;-81
2022/03/28 03:28:36;;;;;;;21.25;9.35;;;;;;;-0.57;42.57;98778.04;1796756;79;20976;-81
2022/03/28 03:31:03;;;;;;;20.05;9.85;;;;;;;-0.62;42.95;98776.13;1807063;79;21467;-81
2022/03/28 03:33:29;;;;;;;23.18;10.50;;;;;;;-0.62;42.57;98780.91;1806733;79;20997;-81
2022/03/28 03:35:58;;;;;;;24.77;10.20;;;;;;;-0.56;42.58;98776.30;1807728;79;21052;-81
2022/03/28 03:38:24;;;;;;;23.85;11.90;;;;;;;-0.54;42.52;98776.80;1773552;79;21018;-81
2022/03/28 03:40:50;;;;;;;26.45;12.47;;;;;;;-0.56;43.07;98785.00;1772773;80;21027;-81
2022/03/28 03:43:17;;;;;;;25.23;11.43;;;;;;;-0.59;42.87;98781.00;1772739;81;20987;-81
2022/03/28 03:45:43;;;;;;;26.57;11.85;;;;;;;-0.61;43.64;98788.30;1772827;81;21069;-81
2022/03/28 03:48:10;;;;;;;29.05;12.93;;;;;;;-0.62;43.10;98783.50;1772783;81;21448;-81
2022/03/28 03:50:37;;;;;;;26.23;11.88;;;;;;;-0.63;42.40;98784.79;1769754;79;20962;-80
2022/03/28 03:53:03;;;;;;;18.10;9.38;;;;;;;-0.67;42.72;98780.78;1769224;81;21088;-81
2022/03/28 03:55:30;;;;;;;21.45;10.32;;;;;;;-0.62;42.75;98782.64;1769010;81;21013;-82
2022/03/28 03:57:56;;;;;;;28.42;11.05;;;;;;;-0.62;42.71;98781.34;1787701;80;20992;-81
2022/03/28 04:00:23;;;;;;;22.45;9.85;;;;;;;-0.61;42.82;98786.59;1802373;80;21015;-81
2022/03/28 04:02:50;;;;;;;18.30;9.98;;;;;;;-0.62;42.77;98780.91;1802597;79;21000;-82
2022/03/28 04:05:17;;;;;;;26.27;11.05;;;;;;;-0.68;43.16;98784.23;1802450;79;20965;-82
2022/03/28 04:07:44;;;;;;;22.70;10.95;;;;;;;-0.67;42.81;98782.50;1803150;79;21042;-82
2022/03/28 04:10:12;;;;;;;27.27;11.43;;;;;;;-0.66;42.91;98781.69;1804311;79;21038;-82
2022/03/28 04:12:39;;;;;;;27.75;11.48;;;;;;;-0.69;42.84;98781.59;1804282;79;21084;-82
2022/03/28 04:15:07;;;;;;;24.60;11.28;;;;;;;-0.68;42.68;98773.83;1804350;79;21002;-80
2022/03/28 04:17:44;;;;;;;21.90;10.08;;;;;;;-0.61;42.59;98776.59;1803704;79;21046;-81
2022/03/28 04:20:17;;;;;;;23.65;10.90;;;;;;;-0.63;42.82;98776.98;1802608;80;21008;-81
2022/03/28 04:22:48;;;;;;;19.60;10.45;;;;;;;-0.62;42.87;98774.39;1802727;80;21063;-81
2022/03/28 04:25:15;;;;;;;20.57;9.55;;;;;;;-0.62;42.77;98774.83;1802498;80;21456;-81
2022/03/28 04:27:41;;;;;;;24.45;10.30;;;;;;;-0.60;42.83;98780.95;1796131;79;21374;-81
2022/03/28 04:30:12;;;;;;;24.65;10.65;;;;;;;-0.57;42.62;98771.94;1786930;80;21039;-81
2022/03/28 04:32:39;;;;;;;22.48;10.13;;;;;;;-0.56;42.71;98784.11;1802602;80;21039;-81
2022/03/28 04:35:08;;;;;;;22.25;10.48;;;;;;;-0.54;42.57;98767.69;1802583;80;21007;-81
2022/03/28 04:37:38;;;;;;;22.22;10.28;;;;;;;-0.56;42.81;98763.28;1802755;80;21029;-80
2022/03/28 04:40:09;;;;;;;25.12;10.32;;;;;;;-0.53;42.71;98768.58;1802440;80;21055;-81
2022/03/28 04:42:36;;;;;;;20.27;9.60;;;;;;;-0.58;42.78;98764.97;1801235;79;21397;-81
2022/03/28 04:45:06;;;;;;;23.40;10.72;;;;;;;-0.55;42.86;98765.93;1804151;79;21067;-81
2022/03/28 04:47:34;;;;;;;26.15;11.57;;;;;;;-0.48;42.82;98764.38;1776082;81;21115;-80
2022/03/28 04:50:01;;;;;;;25.15;10.38;;;;;;;-0.42;42.97;98762.34;1807665;79;20994;-81
2022/03/28 04:52:27;;;;;;;23.87;10.60;;;;;;;-0.38;42.93;98769.40;1776117;81;21048;-81
2022/03/28 04:54:54;;;;;;;30.50;11.00;;;;;;;-0.39;42.86;98758.53;1804007;79;21498;-81
2022/03/28 04:57:21;;;;;;;25.37;10.53;;;;;;;-0.36;43.03;98770.75;1804191;79;21018;-81
2022/03/28 04:59:47;;;;;;;24.50;10.18;;;;;;;-0.34;42.81;98767.34;1809467;79;21003;-81
2022/03/28 05:02:14;;;;;;;35.40;10.20;;;;;;;-0.31;42.83;98767.84;1809610;79;21483;-81
2022/03/28 05:04:41;;;;;;;24.98;10.45;;;;;;;-0.24;42.63;98771.09;1809292;79;20956;-81
2022/03/28 05:07:07;;;;;;;17.40;9.50;;;;;;;-0.19;42.47;98776.41;1809257;79;21031;-81
2022/03/28 05:09:34;;;;;;;18.02;9.48;;;;;;;-0.14;42.34;98774.80;1809650;79;21039;-81
2022/03/28 05:12:00;;;;;;;17.37;8.68;;;;;;;-0.09;42.43;98777.11;1809634;79;21046;-81
2022/03/28 05:14:27;;;;;;;22.32;9.15;;;;;;;-0.08;42.03;98773.66;1809457;79;20952;-82
2022/03/28 05:16:54;;;;;;;20.60;10.60;;;;;;;-0.03;41.87;98773.78;1806521;79;21060;-82
2022/03/28 05:19:20;;;;;;;21.97;10.60;;;;;;;0.06;41.75;98770.11;1794107;80;20974;-82
2022/03/28 05:21:46;;;;;;;22.10;10.58;;;;;;;0.12;41.71;98768.95;1793603;80;20994;-82
2022/03/28 05:24:13;;;;;;;23.22;11.33;;;;;;;0.19;41.42;98770.41;1793830;80;21451;-82
2022/03/28 05:26:40;;;;;;;21.90;11.18;;;;;;;0.21;41.14;98772.64;1793539;80;20962;-81
2022/03/28 05:29:07;;;;;;;23.18;11.18;;;;;;;0.24;40.97;98771.39;1792606;78;20942;-82
2022/03/28 05:31:33;;;;;;;26.48;11.25;;;;;;;0.30;40.84;98771.98;1808790;79;21058;-81
2022/03/28 05:34:00;;;;;;;24.35;11.83;;;;;;;0.34;40.56;98773.82;1809863;79;21003;-81
2022/03/28 05:36:26;;;;;;;24.07;11.60;;;;;;;0.39;40.49;98782.22;1809499;79;21409;-80
2022/03/28 05:38:53;;;;;;;24.50;12.33;;;;;;;0.47;40.25;98777.59;1809656;79;21011;-81
2022/03/28 05:41:19;;;;;;;24.00;11.10;;;;;;;0.53;39.49;98780.34;1804367;79;21021;-81
2022/03/28 05:43:46;;;;;;;28.00;10.23;;;;;;;0.60;38.99;98775.74;1793646;80;21455;-81
2022/03/28 05:46:12;;;;;;;19.85;10.80;;;;;;;0.67;39.12;98762.83;1793931;80;20998;-81
2022/03/28 05:48:39;;;;;;;21.87;10.05;;;;;;;0.73;39.28;98771.68;1793844;80;21018;-81
2022/03/28 05:51:05;;;;;;;22.05;11.25;;;;;;;0.76;39.59;98773.48;1787137;79;21026;-81
2022/03/28 05:53:32;;;;;;;20.65;11.12;;;;;;;0.82;39.44;98770.14;1787990;79;21390;-81
2022/03/28 05:55:58;;;;;;;24.05;10.48;;;;;;;0.88;39.53;98768.52;1798206;80;21070;-81
2022/03/28 05:58:25;;;;;;;21.07;9.95;;;;;;;0.95;39.45;98767.37;1802623;80;20993;-81
2022/03/28 06:00:51;;;;;;;22.40;10.23;;;;;;;1.02;38.87;98766.22;1798083;79;21478;-82
2022/03/28 06:03:18;;;;;;;25.37;10.25;;;;;;;1.14;38.96;98757.77;1803885;79;21022;-81
2022/03/28 06:05:44;;;;;;;21.95;11.08;;;;;;;1.25;38.32;98762.33;1804234;79;20955;-81
2022/03/28 06:08:11;;;;;;;30.25;15.95;;;;;;;1.34;38.42;98761.21;1804304;79;21002;-81
2022/03/28 06:10:38;;;;;;;59.27;26.37;;;;;;;1.47;38.06;98759.72;1802900;79;21871;-81
2022/03/28 06:13:05;;;;;;;31.90;14.87;;;;;;;1.59;38.12;98752.55;1799877;79;21016;-81
2022/03/28 06:15:36;;;;;;;23.25;7.53;;;;;;;1.72;38.04;98757.56;1772776;81;21006;-81
2022/03/28 06:17:59;;;;;;;16.17;7.37;;;;;;;1.86;37.84;98758.25;1772000;81;21054;-81
2022/03/28 06:20:26;;;;;;;16.23;7.85;;;;;;;1.98;37.21;98762.37;1772955;79;22334;-81
2022/03/28 06:22:52;;;;;;;18.98;7.55;;;;;;;2.09;37.00;98765.17;1772405;81;21039;-81
2022/03/28 06:25:19;;;;;;;19.05;8.50;;;;;;;2.20;36.73;98762.75;1781023;80;21444;-82
2022/03/28 06:27:46;;;;;;;20.57;8.20;;;;;;;2.30;36.27;98754.20;1802718;80;21011;-81
2022/03/28 06:30:13;;;;;;;20.17;8.48;;;;;;;2.37;36.69;98756.04;1802034;79;21749;-82
2022/03/28 06:32:40;;;;;;;17.90;8.53;;;;;;;2.47;36.46;98752.26;1792243;79;20932;-81
2022/03/28 06:35:09;;;;;;;17.75;8.35;;;;;;;2.57;36.63;98757.22;1791438;79;21008;-81
2022/03/28 06:37:36;;;;;;;24.25;9.78;;;;;;;2.68;36.60;98750.81;1783527;79;21049;-81
2022/03/28 06:40:05;;;;;;;22.20;9.75;;;;;;;2.77;36.82;98744.41;1761159;81;21565;-80
2022/03/28 06:42:33;;;;;;;23.83;8.98;;;;;;;2.86;36.89;98741.91;1789201;79;21461;-82
2022/03/28 06:45:00;;;;;;;20.68;9.13;;;;;;;2.96;36.85;98746.86;1791208;80;20980;-82
2022/03/28 06:47:26;;;;;;;18.40;8.45;;;;;;;3.05;36.65;98746.09;1791427;80;20976;-82
2022/03/28 06:49:53;;;;;;;19.82;9.73;;;;;;;3.14;35.84;98743.59;1795420;79;21186;-82
2022/03/28 06:52:20;;;;;;;23.87;10.65;;;;;;;3.25;35.69;98742.42;1795601;79;20995;-82
2022/03/28 06:54:46;;;;;;;23.73;10.38;;;;;;;3.37;35.99;98732.48;1790317;80;21059;-81
2022/03/28 06:57:13;;;;;;;27.87;12.70;;;;;;;3.50;35.49;98736.58;1790808;79;21012;-81
2022/03/28 06:59:40;;;;;;;23.80;11.40;;;;;;;3.63;35.28;98737.16;1769080;81;20997;-81
2022/03/28 07:02:07;;;;;;;24.87;11.85;;;;;;;3.76;35.18;98738.58;1789335;79;21031;-83
2022/03/28 07:04:33;;;;;;;23.55;11.10;;;;;;;3.88;35.20;98735.20;1791419;80;21075;-82
2022/03/28 07:07:00;;;;;;;28.55;11.85;;;;;;;4.00;34.59;98731.39;1779933;79;21042;-82
2022/03/28 07:09:26;;;;;;;23.30;11.08;;;;;;;4.14;34.73;98735.86;1772741;81;20978;-82
2022/03/28 07:11:53;;;;;;;26.35;11.45;;;;;;;4.28;34.63;98735.53;1785411;79;21063;-82
2022/03/28 07:14:19;;;;;;;23.00;11.00;;;;;;;4.40;34.58;98728.64;1789640;80;21382;-82
2022/03/28 07:16:46;;;;;;;22.85;11.25;;;;;;;4.51;34.40;98724.34;1781125;80;21034;-82
2022/03/28 07:19:13;;;;;;;23.67;11.95;;;;;;;4.63;34.44;98723.54;1772743;81;20987;-82
2022/03/28 07:21:40;;;;;;;25.05;11.85;;;;;;;4.73;34.26;98717.89;1784356;79;20995;-81
2022/03/28 07:24:07;;;;;;;26.07;11.30;;;;;;;4.87;33.53;98720.62;1809559;79;20984;-81
2022/03/28 07:26:33;;;;;;;22.55;11.35;;;;;;;5.05;33.06;98719.82;1795451;79;21118;-81
2022/03/28 07:29:02;;;;;;;22.25;10.30;;;;;;;5.23;33.68;98713.75;1793005;78;21422;-81
2022/03/28 07:31:29;;;;;;;30.48;11.40;;;;;;;5.36;33.78;98717.30;1802346;79;21460;-82
2022/03/28 07:34:29;;;;;;;26.05;11.28;;;;;;;5.49;33.79;98719.52;1809593;79;21417;-81
2022/03/28 07:36:25;;;;;;;26.77;11.22;;;;;;;5.62;33.51;98711.25;1793765;79;21362;-83
2022/03/28 07:38:51;;;;;;;22.70;10.93;;;;;;;5.74;32.33;98711.72;1791312;80;21047;-82
2022/03/28 07:41:18;;;;;;;19.90;9.90;;;;;;;5.92;31.83;98712.59;1793452;79;21486;-81
2022/03/28 07:43:44;;;;;;;26.87;10.78;;;;;;;6.08;31.71;98717.47;1805155;79;21061;-82
2022/03/28 07:46:13;;;;;;;19.12;10.05;;;;;;;6.19;30.88;98717.02;1792037;79;20954;-81
2022/03/28 07:48:39;;;;;;;21.33;9.30;;;;;;;6.33;31.39;98713.09;1796945;79;20988;-84
2022/03/28 07:51:06;;;;;;;20.52;9.53;;;;;;;6.43;31.12;98702.09;1796050;79;20947;-87
2022/03/28 07:53:37;;;;;;;17.75;8.55;;;;;;;6.54;30.32;98703.40;1789619;79;21054;-85
2022/03/28 07:56:04;;;;;;;20.92;9.40;;;;;;;6.64;29.63;98698.97;1798039;79;21032;-86
2022/03/28 07:58:31;;;;;;;16.73;9.73;;;;;;;6.73;30.48;98696.78;1803606;79;21004;-85
2022/03/28 08:00:57;;;;;;;25.68;10.35;;;;;;;6.82;30.08;98694.55;1803616;79;21034;-86
2022/03/28 08:03:25;;;;;;;21.77;9.20;;;;;;;6.88;29.52;98687.94;1803973;79;21058;-86
2022/03/28 08:05:53;;;;;;;21.97;10.30;;;;;;;6.98;29.52;98683.52;1804114;79;20970;-86
2022/03/28 08:08:20;;;;;;;24.65;9.70;;;;;;;7.07;29.45;98683.91;1803923;79;20987;-85
2022/03/28 08:10:47;;;;;;;23.80;9.03;;;;;;;7.18;29.49;98677.29;1802301;80;21004;-87
2022/03/28 08:13:13;;;;;;;21.82;8.68;;;;;;;7.25;29.61;98673.30;1797179;79;21008;-87
2022/03/28 08:15:40;;;;;;;18.90;8.75;;;;;;;7.37;29.35;98675.42;1777474;79;21365;-86
2022/03/28 08:18:07;;;;;;;17.77;8.70;;;;;;;7.47;28.56;98670.98;1792001;79;21012;-85
2022/03/28 08:20:33;;;;;;;18.82;8.10;;;;;;;7.59;28.66;98673.95;1801909;79;21063;-85
2022/03/28 08:23:00;;;;;;;19.62;8.98;;;;;;;7.71;28.46;98669.93;1802132;79;21035;-85
2022/03/28 08:25:27;;;;;;;19.35;8.78;;;;;;;7.85;28.78;98668.50;1799096;79;21080;-84
2022/03/28 08:27:53;;;;;;;20.90;9.08;;;;;;;8.03;27.50;98662.66;1794107;79;21035;-84
2022/03/28 08:30:20;;;;;;;16.50;8.33;;;;;;;8.23;28.14;98662.48;1795851;79;20972;-84
2022/03/28 08:32:47;;;;;;;18.95;8.45;;;;;;;8.38;26.47;98652.67;1774268;79;21053;-85
2022/03/28 08:35:16;;;;;;;17.23;7.50;;;;;;;8.54;27.20;98651.64;1795647;79;20975;-85
2022/03/28 08:37:43;;;;;;;22.20;9.85;;;;;;;8.66;27.25;98648.42;1758199;81;21473;-85
2022/03/28 08:40:13;;;;;;;20.05;7.37;;;;;;;8.73;26.84;98651.87;1777931;80;21474;-85
2022/03/28 08:42:39;;;;;;;12.53;5.90;;;;;;;8.81;25.22;98641.63;1792666;78;21073;-85
2022/03/28 08:45:08;;;;;;;16.97;7.12;;;;;;;8.94;25.59;98639.74;1792409;80;21076;-85
2022/03/28 08:47:46;;;;;;;10.38;5.47;;;;;;;9.05;25.04;98638.26;1793941;80;20977;-84
2022/03/28 08:50:13;;;;;;;18.00;5.90;;;;;;;9.16;24.99;98634.16;1791640;80;20988;-84
2022/03/28 08:52:42;;;;;;;15.18;5.67;;;;;;;9.25;24.35;98635.80;1794050;80;21488;-84
2022/03/28 08:55:11;;;;;;;13.65;5.87;;;;;;;9.32;24.40;98622.04;1783761;80;21021;-83
2022/03/28 08:57:38;;;;;;;12.05;5.92;;;;;;;9.38;23.57;98624.59;1792879;80;21072;-83
2022/03/28 09:00:09;;;;;;;57.50;29.42;;;;;;;9.44;23.49;98618.34;1768092;81;21011;-85
2022/03/28 09:02:46;;;;;;;16.35;5.53;;;;;;;9.53;24.19;98616.88;1798401;79;21006;-85
2022/03/28 09:05:14;;;;;;;10.53;4.90;;;;;;;9.64;23.37;98609.64;1792643;80;20928;-86
2022/03/28 09:07:43;;;;;;;13.53;5.70;;;;;;;9.79;22.23;98606.33;1765606;81;20995;-86
2022/03/28 09:10:16;;;;;;;17.48;5.62;;;;;;;9.90;23.09;98608.80;1802821;79;20983;-86
2022/03/28 09:13:08;;;;;;;12.25;5.53;;;;;;;10.10;21.91;98605.81;1758488;81;21062;-85
2022/03/28 09:15:55;;;;;;;38.98;25.12;;;;;;;10.36;21.86;98601.81;1788875;79;21035;-86
2022/03/28 09:18:34;;;;;;;10.58;5.55;;;;;;;10.50;21.89;98588.31;1792007;79;20928;-85
2022/03/28 09:21:14;;;;;;;10.78;5.87;;;;;;;10.56;20.90;98593.95;1795669;80;21383;-85
2022/03/28 09:23:46;;;;;;;10.68;5.28;;;;;;;10.62;21.21;98596.48;1795706;80;21434;-85
2022/03/28 09:26:23;;;;;;;13.18;5.05;;;;;;;10.78;21.58;98587.77;1795618;80;21469;-85
2022/03/28 09:28:56;;;;;;;10.15;5.60;;;;;;;10.98;21.84;98586.47;1795753;80;21154;-85
2022/03/28 09:31:39;;;;;;;10.73;4.70;;;;;;;11.07;21.02;98583.61;1796156;80;21001;-84
2022/03/28 09:34:10;;;;;;;7.78;3.75;;;;;;;11.28;19.51;98577.40;1786958;80;21320;-84
2022/03/28 09:36:48;;;;;;;9.35;4.70;;;;;;;11.39;20.42;98581.14;1795731;80;21446;-84
2022/03/28 09:39:27;;;;;;;8.53;4.58;;;;;;;11.44;19.06;98577.03;1796020;80;21403;-84
2022/03/28 09:42:11;;;;;;;8.83;4.22;;;;;;;11.62;19.78;98575.70;1795520;80;21069;-84
2022/03/28 09:44:43;;;;;;;10.32;4.92;;;;;;;11.77;20.13;98573.59;1795851;80;21045;-85
2022/03/28 09:47:13;;;;;;;8.30;4.45;;;;;;;11.88;19.06;98571.55;1793876;80;20989;-85
2022/03/28 09:49:43;;;;;;;13.75;5.12;;;;;;;11.99;19.97;98567.27;1801667;80;21051;-82
2022/03/28 09:52:17;;;;;;;11.60;5.53;;;;;;;12.10;20.20;98569.23;1801944;80;21058;-85
2022/03/28 09:54:55;;;;;;;13.60;7.12;;;;;;;12.19;20.06;98572.09;1798166;79;21099;-85
2022/03/28 09:57:32;;;;;;;23.75;9.00;;;;;;;12.25;20.19;98559.97;1763199;81;21030;-83
2022/03/28 10:00:20;;;;;;;17.42;10.00;;;;;;;12.42;21.58;98552.00;1783574;80;21421;-84
2022/03/28 10:02:49;;;;;;;14.33;8.13;;;;;;;12.61;21.44;98550.12;1769886;81;21047;-83
2022/03/28 10:05:16;;;;;;;15.20;8.03;;;;;;;12.85;20.91;98545.00;1771506;81;21072;-83
2022/03/28 10:07:42;;;;;;;19.85;9.28;;;;;;;12.98;21.58;98537.06;1771747;81;21472;-82
2022/03/28 10:10:09;;;;;;;16.27;9.28;;;;;;;13.14;21.69;98529.48;1796249;79;21041;-82
2022/03/28 10:12:36;;;;;;;18.25;9.93;;;;;;;13.22;21.29;98531.91;1796052;80;21008;-83
2022/03/28 10:15:04;;;;;;;16.25;9.13;;;;;;;13.31;20.99;98524.95;1796174;80;20985;-83
2022/03/28 10:17:32;;;;;;;17.85;9.05;;;;;;;13.40;21.64;98523.78;1793714;79;21461;-86
2022/03/28 10:20:00;;;;;;;27.25;9.15;;;;;;;13.50;22.03;98513.74;1800921;80;21483;-83
2022/03/28 10:22:32;;;;;;;16.48;7.83;;;;;;;13.58;21.85;98513.48;1795756;79;20992;-83
2022/03/28 10:25:09;;;;;;;14.10;8.03;;;;;;;13.72;21.96;98504.56;1761566;81;21017;-82
2022/03/28 10:27:37;;;;;;;17.52;9.30;;;;;;;13.90;21.90;98505.31;1778107;80;20977;-83
2022/03/28 10:30:30;;;;;;;13.22;7.90;;;;;;;13.98;21.84;98493.91;1798993;79;20975;-83
2022/03/28 10:33:17;;;;;;;15.68;9.35;;;;;;;14.03;21.36;98493.75;1803600;79;21046;-84
2022/03/28 10:36:06;;;;;;;17.57;9.10;;;;;;;14.18;21.92;98490.98;1770371;81;21046;-83
2022/03/28 10:38:33;;;;;;;14.28;7.78;;;;;;;14.29;22.29;98478.60;1800369;79;21030;-84
2022/03/28 10:41:05;;;;;;;16.82;8.30;;;;;;;14.47;21.60;98479.25;1769929;81;21038;-84
2022/03/28 10:43:34;;;;;;;14.65;8.35;;;;;;;14.65;22.08;98474.13;1793375;79;21031;-84
2022/03/28 10:46:05;;;;;;;16.93;8.68;;;;;;;15.23;22.03;98470.59;1777964;80;20988;-84
2022/03/28 10:48:50;;;;;;;15.68;8.18;;;;;;;16.52;21.27;98451.66;1739537;82;21051;-84
2022/03/28 10:51:24;;;;;;;13.13;8.20;;;;;;;17.74;19.00;98449.82;1770463;81;20999;-84
2022/03/28 10:54:00;;;;;;;13.45;7.85;;;;;;;19.00;18.79;98439.93;1801830;79;21048;-83
2022/03/28 10:56:45;;;;;;;16.60;9.38;;;;;;;20.02;18.77;98425.50;1794561;80;20945;-83
2022/03/28 10:59:19;;;;;;;16.48;8.88;;;;;;;21.10;18.55;98430.40;1791192;80;21048;-83
2022/03/28 11:01:52;;;;;;;;;;;;;;;22.03;17.44;98419.73;1783743;80;21066;-84
2022/03/28 11:04:24;;;;;;;14.75;8.73;;;;;;;22.72;16.10;98413.58;1763979;81;20111;-83
2022/03/28 11:07:07;;;;;;;13.22;9.10;;;;;;;23.37;16.10;98415.55;1795895;80;21061;-83
2022/03/28 11:09:55;;;;;;;14.70;11.13;;;;;;;24.23;15.37;98399.53;1795367;80;21024;-84
2022/03/28 11:12:35;;;;;;;29.05;21.07;;;;;;;25.02;15.71;98393.19;1800417;80;21053;-82
2022/03/28 11:15:13;;;;;;;15.88;10.90;;;;;;;25.44;13.88;98388.81;1801988;80;21016;-84
2022/03/28 11:17:57;;;;;;;18.07;11.15;;;;;;;25.27;12.94;98377.56;1801908;80;21039;-84
2022/03/28 11:20:28;;;;;;;15.70;11.43;;;;;;;25.88;14.65;98376.52;1802115;79;20980;-83
2022/03/28 11:23:13;;;;;;;16.30;11.15;;;;;;;26.49;13.69;98376.69;1803494;79;21042;-83
2022/03/28 11:25:55;;;;;;;14.35;11.10;;;;;;;26.62;13.41;98367.77;1803410;79;21026;-83
2022/03/28 11:28:27;;;;;;;16.57;11.78;;;;;;;26.94;13.37;98359.06;1791085;79;21498;-83
2022/03/28 11:31:07;;;;;;;18.90;12.25;;;;;;;27.14;12.57;98352.27;1770474;81;21049;-83
2022/03/28 11:33:41;;;;;;;16.67;11.18;;;;;;;26.76;12.24;98350.70;1771391;81;21021;-83
2022/03/28 11:36:12;;;;;;;;;;;;;;;27.04;12.99;98348.20;1773695;81;21403;-83